Time;durP1;ratioP1;P1;durP2;ratioP2;P2;SDS_P1;SDS_P2;PMS_P1;PMS_P2;Temp;Humidity;BMP_temperature;BMP_pressure;BME280_temperature;BME280_humidity;BME280_pressure;Samples;Min_cycle;Max_cycle;Signal;HPM_P1;HPM_P2
2024/01/05 06:01:05;;;;;;;9.80;3.90;;;6.00;82.40;;;;;;4552334;23;20055;-78
2024/01/05 06:03:06;;;;;;;8.98;3.30;;;5.90;83.00;;;;;;4087106;29;20507;-77
2024/01/05 06:05:09;;;;;;;11.02;3.30;;;5.90;83.10;;;;;;4087030;29;20500;-80
2024/01/05 06:07:10;;;;;;;7.88;3.22;;;5.80;83.40;;;;;;4086918;29;20086;-77
2024/01/05 06:09:14;;;;;;;8.88;3.38;;;5.80;83.50;;;;;;4086585;29;20047;-78
2024/01/05 06:11:17;;;;;;;10.35;2.92;;;5.80;83.60;;;;;;4086615;29;20059;-79
2024/01/05 06:13:18;;;;;;;8.82;3.28;;;5.90;83.60;;;;;;4086907;29;20079;-77
2024/01/05 06:15:20;;;;;;;8.07;3.30;;;5.90;83.80;;;;;;4086881;29;20617;-76
2024/01/05 06:17:23;;;;;;;13.23;3.88;;;5.90;83.60;;;;;;4086916;29;20171;-77
2024/01/05 06:19:25;;;;;;;8.48;3.63;;;5.90;83.70;;;;;;4086552;29;20074;-77
2024/01/05 06:21:27;;;;;;;9.48;3.80;;;5.90;83.90;;;;;;4086592;29;20114;-76
2024/01/05 06:23:29;;;;;;;8.82;4.03;;;5.80;83.90;;;;;;4086689;29;20111;-77
2024/01/05 06:25:30;;;;;;;10.32;4.07;;;5.80;84.20;;;;;;4085577;29;20111;-78
2024/01/05 06:27:32;;;;;;;11.68;3.80;;;5.80;84.30;;;;;;4084815;29;20114;-80
2024/01/05 06:29:34;;;;;;;12.77;3.78;;;5.80;84.20;;;;;;4083193;29;20467;-79
2024/01/05 06:31:36;;;;;;;11.88;3.85;;;5.80;84.00;;;;;;4076966;29;20063;-80
2024/01/05 06:33:39;;;;;;;8.07;3.20;;;5.80;84.00;;;;;;4086333;29;20083;-77
2024/01/05 06:35:41;;;;;;;12.75;3.85;;;5.70;84.30;;;;;;4086573;29;20304;-77
2024/01/05 06:37:43;;;;;;;14.20;4.90;;;5.60;84.40;;;;;;4086191;29;20122;-78
2024/01/05 06:39:45;;;;;;;11.13;3.95;;;5.40;85.20;;;;;;4086184;29;20056;-77
2024/01/05 06:41:45;;;;;;;9.02;3.90;;;5.50;85.60;;;;;;4086378;29;20095;-79
2024/01/05 06:43:47;;;;;;;10.60;4.60;;;5.50;85.70;;;;;;4086309;29;20051;-78
2024/01/05 06:45:48;;;;;;;10.43;4.45;;;5.30;85.80;;;;;;4085658;29;20043;-80
2024/01/05 06:47:50;;;;;;;9.93;4.60;;;5.50;85.80;;;;;;4084628;29;20267;-79
2024/01/05 06:49:54;;;;;;;11.40;4.32;;;5.50;85.60;;;;;;4085177;29;20051;-78
2024/01/05 06:51:57;;;;;;;12.15;4.05;;;5.50;85.20;;;;;;4086160;29;20059;-77
2024/01/05 06:53:58;;;;;;;10.02;4.03;;;5.60;85.20;;;;;;4084897;29;20374;-78
2024/01/05 06:56:00;;;;;;;7.68;3.50;;;5.60;85.40;;;;;;4086003;29;20051;-79
2024/01/05 06:58:03;;;;;;;9.00;3.65;;;5.60;85.40;;;;;;4084661;29;20056;-77
2024/01/05 07:00:08;;;;;;;9.63;4.28;;;5.60;85.60;;;;;;4085431;29;20093;-79
2024/01/05 07:02:10;;;;;;;12.23;4.28;;;5.60;85.40;;;;;;4085489;29;20052;-78
2024/01/05 07:04:12;;;;;;;12.77;4.60;;;5.60;85.40;;;;;;4086002;29;20048;-79
2024/01/05 07:06:16;;;;;;;13.40;5.20;;;5.60;85.60;;;;;;4085578;29;20044;-77
2024/01/05 07:08:17;;;;;;;11.15;5.35;;;5.60;85.80;;;;;;4086489;29;20386;-78
2024/01/05 07:10:19;;;;;;;12.55;5.20;;;5.60;85.60;;;;;;4085949;29;20445;-79
2024/01/05 07:12:21;;;;;;;12.52;5.05;;;5.60;85.70;;;;;;4085864;29;20110;-79
2024/01/05 07:14:23;;;;;;;9.85;4.65;;;5.60;85.60;;;;;;4085602;29;20055;-77
2024/01/05 07:16:25;;;;;;;11.63;4.93;;;5.60;85.80;;;;;;4085467;29;20048;-78
2024/01/05 07:18:27;;;;;;;12.20;4.90;;;5.60;85.90;;;;;;4085723;29;20114;-78
2024/01/05 07:20:29;;;;;;;10.98;4.35;;;5.60;85.90;;;;;;4085622;29;20136;-80
2024/01/05 07:22:32;;;;;;;11.38;4.32;;;5.60;86.00;;;;;;4085409;29;20048;-79
2024/01/05 07:24:35;;;;;;;9.85;3.90;;;5.60;86.00;;;;;;4085202;29;20051;-78
2024/01/05 07:26:37;;;;;;;8.18;3.72;;;5.60;86.00;;;;;;4076633;29;20044;-80
2024/01/05 07:28:39;;;;;;;8.75;4.20;;;5.60;85.70;;;;;;4085687;29;20087;-76
2024/01/05 07:30:39;;;;;;;9.70;3.80;;;5.60;85.60;;;;;;4085468;29;20556;-78
2024/01/05 07:32:41;;;;;;;9.95;3.28;;;5.60;85.70;;;;;;4085623;29;20043;-78
2024/01/05 07:34:44;;;;;;;9.45;3.40;;;5.60;86.10;;;;;;4085174;29;20050;-79
2024/01/05 07:36:46;;;;;;;10.35;3.92;;;5.60;85.70;;;;;;4083601;29;20092;-79
2024/01/05 07:38:49;;;;;;;8.90;4.20;;;5.60;85.70;;;;;;4086126;29;20114;-76
2024/01/05 07:40:51;;;;;;;11.75;3.78;;;5.50;86.00;;;;;;4084797;29;20071;-76
2024/01/05 07:42:52;;;;;;;8.00;3.47;;;5.60;86.00;;;;;;4084653;29;20057;-78
2024/01/05 07:44:57;;;;;;;10.25;3.78;;;5.60;85.70;;;;;;4076588;29;20055;-81
2024/01/05 07:46:59;;;;;;;10.82;3.58;;;5.60;85.90;;;;;;4084931;29;20055;-78
2024/01/05 07:49:00;;;;;;;11.45;4.00;;;5.60;85.70;;;;;;4084767;29;20043;-79
2024/01/05 07:51:04;;;;;;;10.73;4.28;;;5.70;85.80;;;;;;4071135;29;20107;-78
2024/01/05 07:53:06;;;;;;;8.85;3.80;;;5.70;85.90;;;;;;4084590;29;20484;-77
2024/01/05 07:55:10;;;;;;;9.57;3.55;;;5.60;85.80;;;;;;4085393;29;20051;-78
2024/01/05 07:57:12;;;;;;;11.98;4.28;;;5.70;85.70;;;;;;4077482;29;20130;-78
2024/01/05 07:59:16;;;;;;;9.23;3.75;;;5.70;85.70;;;;;;4084783;29;20503;-78
2024/01/05 08:01:18;;;;;;;7.90;3.78;;;5.50;85.60;;;;;;4084838;29;20086;-77
2024/01/05 08:03:21;;;;;;;13.05;4.20;;;5.60;85.90;;;;;;4084842;29;20044;-77
2024/01/05 08:05:23;;;;;;;10.25;3.90;;;5.50;86.00;;;;;;4085064;29;20103;-77
2024/01/05 08:07:25;;;;;;;9.60;3.70;;;5.60;86.00;;;;;;4084843;29;20059;-78
2024/01/05 08:09:27;;;;;;;8.05;3.33;;;5.60;85.80;;;;;;4084812;29;20079;-79
2024/01/05 08:11:30;;;;;;;8.60;3.65;;;5.60;85.70;;;;;;4084652;29;20102;-77
2024/01/05 08:13:32;;;;;;;7.57;3.22;;;5.60;85.80;;;;;;4085137;29;20102;-76
2024/01/05 08:15:34;;;;;;;14.27;5.32;;;5.70;85.50;;;;;;4085112;29;20051;-77
2024/01/05 08:17:35;;;;;;;9.73;3.67;;;5.70;85.90;;;;;;4084832;29;20083;-77
2024/01/05 08:19:37;;;;;;;11.73;3.97;;;5.70;85.70;;;;;;4082527;29;20102;-79
2024/01/05 08:21:39;;;;;;;9.02;3.50;;;5.70;85.50;;;;;;4084681;29;20103;-81
2024/01/05 08:23:40;;;;;;;11.50;3.78;;;5.70;85.10;;;;;;4085169;29;20052;-77
2024/01/05 08:25:43;;;;;;;12.02;3.47;;;5.70;85.10;;;;;;4084615;29;20043;-76
2024/01/05 08:27:46;;;;;;;19.23;10.15;;;5.60;85.70;;;;;;4080045;29;20496;-77
2024/01/05 08:29:48;;;;;;;12.43;6.22;;;5.60;85.70;;;;;;4058992;29;20051;-78
2024/01/05 08:31:50;;;;;;;7.50;3.50;;;5.70;86.20;;;;;;4067372;29;20048;-78
2024/01/05 08:33:51;;;;;;;7.45;3.70;;;5.60;86.20;;;;;;4064409;29;20051;-79
2024/01/05 08:35:53;;;;;;;11.85;4.38;;;5.60;86.10;;;;;;4068784;29;20044;-80
2024/01/05 08:37:55;;;;;;;10.20;4.03;;;5.70;86.00;;;;;;4068407;29;20048;-78
2024/01/05 08:39:57;;;;;;;10.30;4.57;;;5.60;86.50;;;;;;4068639;29;20055;-79
2024/01/05 08:41:59;;;;;;;13.00;4.72;;;5.50;86.10;;;;;;4068377;29;20553;-78
2024/01/05 08:44:02;;;;;;;11.48;4.65;;;5.50;86.30;;;;;;4068038;29;20044;-78
2024/01/05 08:46:04;;;;;;;13.68;4.32;;;5.40;86.80;;;;;;4068836;29;20051;-79
2024/01/05 08:48:06;;;;;;;12.20;4.97;;;5.40;87.40;;;;;;4068857;29;20075;-80
2024/01/05 08:50:08;;;;;;;11.15;4.30;;;5.30;87.10;;;;;;4067461;29;20103;-80
2024/01/05 08:52:09;;;;;;;10.50;4.53;;;5.30;87.80;;;;;;4068365;29;20652;-79
2024/01/05 08:54:11;;;;;;;9.75;3.80;;;5.30;88.00;;;;;;4068568;29;20059;-79
2024/01/05 08:56:14;;;;;;;9.88;3.95;;;5.30;87.50;;;;;;4066021;29;20405;-77
2024/01/05 08:58:16;;;;;;;9.32;4.03;;;5.30;87.60;;;;;;4067483;29;20056;-79
2024/01/05 09:00:19;;;;;;;11.20;4.40;;;5.40;87.20;;;;;;4062309;29;20052;-78
2024/01/05 09:02:20;;;;;;;13.25;4.10;;;5.40;86.90;;;;;;4068427;29;20080;-78
2024/01/05 09:04:22;;;;;;;11.35;4.95;;;5.50;86.60;;;;;;4068384;29;20052;-80
2024/01/05 09:06:24;;;;;;;13.57;5.20;;;5.60;86.60;;;;;;4070818;29;20514;-76
2024/01/05 09:08:26;;;;;;;8.68;4.03;;;5.70;86.40;;;;;;4070891;29;20055;-82
2024/01/05 09:10:28;;;;;;;10.25;3.40;;;5.70;86.20;;;;;;4071453;29;20108;-79
2024/01/05 09:12:30;;;;;;;10.50;4.22;;;5.80;85.10;;;;;;4071514;29;20128;-80
2024/01/05 09:14:31;;;;;;;21.95;11.50;;;5.90;85.10;;;;;;4071443;29;20052;-80
2024/01/05 09:16:35;;;;;;;29.92;13.20;;;5.90;85.20;;;;;;4071581;29;20080;-78
2024/01/05 09:18:38;;;;;;;16.92;5.75;;;6.00;85.20;;;;;;4071558;29;20056;-79
2024/01/05 09:20:40;;;;;;;11.10;4.03;;;6.00;85.10;;;;;;4054982;29;20052;-80
2024/01/05 09:22:42;;;;;;;9.98;3.97;;;6.00;84.90;;;;;;4071914;29;20438;-81
2024/01/05 09:24:44;;;;;;;10.85;3.80;;;6.10;85.10;;;;;;4071735;29;20052;-76
2024/01/05 09:26:46;;;;;;;8.60;3.33;;;6.10;85.00;;;;;;4071808;29;20052;-80
2024/01/05 09:28:49;;;;;;;8.50;3.20;;;6.20;84.70;;;;;;4071029;29;20074;-80
2024/01/05 09:30:51;;;;;;;7.25;2.90;;;6.30;84.30;;;;;;4071418;29;20123;-78
2024/01/05 09:32:54;;;;;;;8.10;3.42;;;6.30;83.80;;;;;;4071360;29;20107;-77
2024/01/05 09:34:56;;;;;;;9.13;3.42;;;6.40;83.10;;;;;;4071488;29;20048;-79
2024/01/05 09:36:58;;;;;;;9.63;3.25;;;6.40;82.70;;;;;;4071673;29;20135;-79
2024/01/05 09:38:59;;;;;;;7.25;3.05;;;6.50;82.40;;;;;;4071181;29;20148;-79
2024/01/05 09:41:02;;;;;;;10.65;3.20;;;6.50;82.60;;;;;;4071163;29;20052;-79
2024/01/05 09:43:04;;;;;;;8.73;2.67;;;6.60;82.60;;;;;;4072319;29;20048;-79
2024/01/05 09:45:11;;;;;;;6.07;2.65;;;6.60;82.10;;;;;;4078375;29;20048;-78
2024/01/05 09:47:14;;;;;;;7.65;3.10;;;6.70;81.80;;;;;;4076939;29;20048;-78
2024/01/05 09:49:18;;;;;;;7.05;3.30;;;6.70;81.80;;;;;;4061464;29;20056;-80
2024/01/05 09:51:20;;;;;;;7.97;2.70;;;6.70;81.30;;;;;;4056638;29;20048;-79
2024/01/05 09:53:21;;;;;;;8.20;2.78;;;6.80;80.60;;;;;;4064937;29;20051;-78
2024/01/05 09:55:23;;;;;;;16.77;7.72;;;6.80;80.90;;;;;;4066361;29;20094;-78
2024/01/05 09:57:27;;;;;;;14.75;6.60;;;6.80;81.50;;;;;;4067899;29;20064;-81
2024/01/05 09:59:29;;;;;;;13.80;4.80;;;6.80;81.80;;;;;;4068174;29;20052;-80
2024/01/05 10:01:30;;;;;;;13.32;3.97;;;6.90;82.40;;;;;;4060017;29;20065;-79
2024/01/05 10:03:33;;;;;;;12.20;4.32;;;6.80;83.00;;;;;;4054240;29;20584;-83
2024/01/05 10:05:36;;;;;;;11.80;3.88;;;6.90;82.70;;;;;;4054552;29;20052;-84
2024/01/05 10:07:45;;;;;;;11.43;2.67;;;6.90;81.60;;;;;;4053650;29;20080;-79
2024/01/05 10:09:52;;;;;;;9.80;2.85;;;6.90;80.60;;;;;;4053423;29;20135;-77
2024/01/05 10:11:54;;;;;;;9.20;2.80;;;6.90;81.30;;;;;;4054361;29;20455;-79
2024/01/05 10:14:00;;;;;;;8.45;4.10;;;7.00;82.50;;;;;;4051352;29;20072;-81
2024/01/05 10:16:02;;;;;;;10.48;5.00;;;7.00;81.60;;;;;;4052711;29;20053;-78
2024/01/05 10:18:17;;;;;;;9.88;4.05;;;7.10;81.90;;;;;;4052691;29;20052;-78
2024/01/05 10:20:19;;;;;;;9.30;4.40;;;7.10;81.90;;;;;;4055154;29;20164;-80
2024/01/05 10:22:22;;;;;;;10.20;3.00;;;7.00;83.70;;;;;;4053421;29;20085;-81
2024/01/05 10:24:26;;;;;;;10.23;2.78;;;6.90;84.40;;;;;;4054573;29;20172;-80
2024/01/05 10:26:28;;;;;;;9.63;2.60;;;6.80;83.90;;;;;;4049956;29;20427;-78
2024/01/05 10:28:30;;;;;;;6.47;2.72;;;6.80;83.90;;;;;;4054930;29;20097;-79
2024/01/05 10:30:32;;;;;;;10.95;4.20;;;6.90;83.30;;;;;;4054738;29;20049;-81
2024/01/05 10:32:34;;;;;;;10.75;5.28;;;7.00;82.40;;;;;;4049748;29;20100;-80
2024/01/05 10:34:35;;;;;;;15.95;4.45;;;6.90;83.00;;;;;;4055519;29;20060;-79
2024/01/05 10:36:37;;;;;;;11.65;4.80;;;7.00;83.30;;;;;;4055528;29;20041;-81
2024/01/05 10:38:40;;;;;;;9.77;4.20;;;7.00;83.50;;;;;;4052986;29;20049;-79
2024/01/05 10:40:43;;;;;;;10.07;4.18;;;7.10;83.30;;;;;;4050100;29;20108;-79
2024/01/05 10:42:45;;;;;;;12.45;4.60;;;7.10;83.40;;;;;;4066041;29;20109;-79
2024/01/05 10:44:49;;;;;;;7.72;3.90;;;7.20;83.10;;;;;;4055245;29;20048;-79
2024/01/05 10:46:52;;;;;;;8.63;3.75;;;7.30;82.80;;;;;;4054218;29;20409;-77
2024/01/05 10:48:54;;;;;;;8.07;4.03;;;7.30;82.50;;;;;;4051569;29;20491;-79
2024/01/05 10:50:58;;;;;;;10.68;4.35;;;7.30;82.80;;;;;;4057832;29;20127;-79
2024/01/05 10:53:00;;;;;;;11.75;3.92;;;7.40;82.80;;;;;;4055067;29;20048;-79
2024/01/05 10:55:05;;;;;;;11.63;4.32;;;7.40;82.90;;;;;;4054715;29;20398;-79
2024/01/05 10:57:10;;;;;;;7.78;3.70;;;7.50;82.30;;;;;;4053939;29;20053;-79
2024/01/05 10:59:12;;;;;;;11.63;4.25;;;7.60;81.70;;;;;;4052630;29;20554;-78
2024/01/05 11:01:18;;;;;;;11.23;4.40;;;7.60;82.20;;;;;;4055896;29;20104;-80
2024/01/05 11:03:21;;;;;;;11.57;4.53;;;7.70;81.70;;;;;;4055143;29;20490;-79
2024/01/05 11:05:24;;;;;;;11.02;5.43;;;7.60;82.10;;;;;;4062193;29;20049;-79
2024/01/05 11:07:27;;;;;;;9.20;4.40;;;7.60;83.30;;;;;;4056765;29;20071;-78
2024/01/05 11:09:46;;;;;;;8.05;3.85;;;7.60;84.20;;;;;;4070312;29;20469;-79
2024/01/05 11:12:05;;;;;;;11.00;3.80;;;7.60;83.80;;;;;;4070242;29;20043;-80
2024/01/05 11:14:35;;;;;;;9.10;3.67;;;7.60;82.20;;;;;;4057973;29;20433;-79
2024/01/05 11:17:27;;;;;;;10.05;3.42;;;7.60;82.20;;;;;;4061584;29;20048;-79
2024/01/05 11:19:57;;;;;;;9.40;3.40;;;7.70;82.00;;;;;;4058693;29;20098;-78
2024/01/05 11:22:05;;;;;;;10.73;3.78;;;7.70;82.80;;;;;;4062964;29;20052;-78
2024/01/05 11:24:07;;;;;;;10.35;3.38;;;7.70;83.10;;;;;;4055820;29;20088;-80
2024/01/05 11:26:35;;;;;;;8.52;4.00;;;7.70;83.40;;;;;;4053679;29;20124;-81
2024/01/05 11:28:39;;;;;;;9.23;4.07;;;7.70;83.20;;;;;;4053039;29;20048;-80
2024/01/05 11:30:44;;;;;;;9.65;4.05;;;7.70;83.40;;;;;;4053422;29;20060;-79
2024/01/05 11:32:46;;;;;;;11.18;4.60;;;7.70;82.90;;;;;;4046223;29;20049;-78
2024/01/05 11:34:49;;;;;;;8.93;3.80;;;7.70;83.30;;;;;;4053931;29;20060;-79
2024/01/05 11:36:57;;;;;;;8.50;4.05;;;7.70;82.70;;;;;;4053753;29;20458;-80
2024/01/05 11:38:58;;;;;;;8.77;3.28;;;7.80;82.40;;;;;;4053046;29;20132;-78
2024/01/05 11:41:00;;;;;;;9.73;3.20;;;7.80;81.70;;;;;;4052466;29;20052;-78
2024/01/05 11:43:35;;;;;;;6.00;2.90;;;7.90;81.80;;;;;;4054166;29;20068;-82
2024/01/05 11:45:50;;;;;;;7.78;3.00;;;7.90;80.90;;;;;;4054987;29;20053;-84
2024/01/05 11:47:52;;;;;;;7.53;3.30;;;8.00;79.60;;;;;;4055221;29;20048;-84
2024/01/05 11:49:53;;;;;;;9.27;3.63;;;8.00;79.70;;;;;;4054501;29;20085;-81
2024/01/05 11:51:55;;;;;;;8.48;3.35;;;8.10;80.20;;;;;;4063239;29;20060;-84
2024/01/05 11:53:57;;;;;;;8.32;3.00;;;8.10;79.90;;;;;;4059610;29;20459;-80
2024/01/05 11:56:00;;;;;;;7.22;2.80;;;8.10;79.20;;;;;;4052534;29;20135;-82
2024/01/05 11:58:02;;;;;;;8.90;2.95;;;8.10;78.60;;;;;;4053835;29;20068;-81
2024/01/05 12:00:05;;;;;;;7.53;2.70;;;8.10;78.70;;;;;;4054269;29;20483;-82
2024/01/05 12:02:08;;;;;;;6.72;2.75;;;8.20;78.20;;;;;;4061781;29;20081;-83
2024/01/05 12:04:09;;;;;;;6.82;2.42;;;8.10;77.60;;;;;;4054076;29;20486;-84
2024/01/05 12:06:13;;;;;;;7.00;2.58;;;8.20;77.50;;;;;;4054058;29;20049;-83
2024/01/05 12:08:15;;;;;;;8.38;3.15;;;8.20;77.20;;;;;;4053845;29;20120;-83
2024/01/05 12:10:24;;;;;;;7.75;2.80;;;8.20;77.20;;;;;;4053867;29;20104;-82
2024/01/05 12:12:26;;;;;;;14.15;7.38;;;8.20;77.20;;;;;;4053824;29;20151;-83
2024/01/05 12:14:28;;;;;;;9.25;4.55;;;8.20;77.10;;;;;;4053448;29;20464;-83
2024/01/05 12:16:31;;;;;;;8.07;2.92;;;8.20;76.90;;;;;;4053842;29;20048;-83
2024/01/05 12:18:42;;;;;;;8.25;2.75;;;8.20;77.00;;;;;;4053631;29;20052;-84
2024/01/05 12:20:43;;;;;;;6.40;2.50;;;8.30;77.30;;;;;;4053666;29;20079;-83
2024/01/05 12:22:45;;;;;;;8.93;2.58;;;8.30;77.10;;;;;;4053788;29;20048;-82
2024/01/05 12:24:47;;;;;;;6.80;2.58;;;8.30;77.40;;;;;;4053696;29;20048;-82
2024/01/05 12:26:54;;;;;;;6.50;2.83;;;8.30;77.40;;;;;;4053521;29;20053;-83
2024/01/05 12:28:56;;;;;;;7.63;3.33;;;8.40;77.50;;;;;;4053854;29;20044;-81
2024/01/05 12:30:58;;;;;;;8.52;3.03;;;8.40;77.20;;;;;;4053594;29;20052;-82
2024/01/05 12:32:59;;;;;;;6.93;3.08;;;8.40;77.10;;;;;;4052480;29;20053;-82
2024/01/05 12:35:05;;;;;;;8.80;2.75;;;8.50;76.70;;;;;;4054122;29;20063;-83
2024/01/05 12:37:08;;;;;;;9.75;2.63;;;8.50;76.80;;;;;;4054049;29;20554;-82
2024/01/05 12:39:11;;;;;;;8.35;2.33;;;8.50;76.60;;;;;;4053589;29;20048;-83
2024/01/05 12:41:15;;;;;;;8.70;2.97;;;8.50;76.10;;;;;;4053806;29;20048;-82
2024/01/05 12:43:17;;;;;;;8.23;2.53;;;8.50;76.40;;;;;;4053702;29;20045;-82
2024/01/05 12:45:22;;;;;;;6.85;2.70;;;8.50;76.70;;;;;;4053693;29;20056;-83
2024/01/05 12:47:30;;;;;;;7.30;2.70;;;8.60;76.50;;;;;;4053977;29;20113;-83
2024/01/05 12:49:36;;;;;;;8.38;3.15;;;8.60;76.90;;;;;;4053602;29;20048;-82
2024/01/05 12:51:47;;;;;;;;;;;8.60;78.20;;;;;;4053890;29;20056;-82
2024/01/05 12:53:59;;;;;;;8.88;3.65;;;8.60;79.10;;;;;;4053572;29;19923;-83
2024/01/05 12:56:09;;;;;;;11.63;4.28;;;8.70;79.00;;;;;;4053046;29;20105;-82
2024/01/05 12:58:09;;;;;;;10.32;4.90;;;8.70;80.30;;;;;;4053241;29;20052;-83
2024/01/05 13:00:12;;;;;;;10.20;5.05;;;8.70;80.90;;;;;;4053119;29;20081;-83
2024/01/05 13:02:14;;;;;;;11.70;5.13;;;8.70;81.10;;;;;;4053003;29;20108;-83
2024/01/05 13:04:28;;;;;;;10.38;4.90;;;8.70;81.00;;;;;;4053515;29;20093;-83
2024/01/05 13:06:30;;;;;;;14.35;6.63;;;8.80;81.10;;;;;;4052724;29;20076;-83
2024/01/05 13:08:34;;;;;;;15.15;6.55;;;8.70;82.00;;;;;;4053095;29;20479;-83
2024/01/05 13:10:38;;;;;;;15.18;7.10;;;8.70;82.50;;;;;;4053081;29;20109;-82
2024/01/05 13:12:41;;;;;;;12.40;6.53;;;8.70;82.70;;;;;;4053129;29;20051;-82
2024/01/05 13:14:43;;;;;;;12.15;5.45;;;8.80;81.50;;;;;;4053129;29;20488;-84
2024/01/05 13:16:46;;;;;;;12.57;5.70;;;8.80;80.60;;;;;;4053288;29;20056;-83
2024/01/05 13:18:48;;;;;;;12.85;5.40;;;8.90;80.50;;;;;;4053132;29;20052;-82
2024/01/05 13:20:50;;;;;;;11.50;5.25;;;8.90;79.70;;;;;;4052911;29;20052;-82
2024/01/05 13:22:54;;;;;;;16.73;5.55;;;8.90;79.40;;;;;;4053154;29;20049;-79
2024/01/05 13:24:57;;;;;;;10.50;4.93;;;9.00;79.40;;;;;;4053264;29;20061;-81
2024/01/05 13:27:00;;;;;;;9.98;4.70;;;9.00;78.60;;;;;;4052940;29;20048;-82
2024/01/05 13:29:02;;;;;;;13.50;4.78;;;9.00;78.30;;;;;;4052493;29;20061;-82
2024/01/05 13:31:04;;;;;;;9.93;4.70;;;9.00;77.70;;;;;;4051746;29;20050;-81
2024/01/05 13:33:06;;;;;;;12.65;5.13;;;9.00;77.70;;;;;;4053070;29;20053;-80
2024/01/05 13:35:07;;;;;;;10.55;4.57;;;9.00;77.60;;;;;;4053335;29;20448;-81
2024/01/05 13:37:09;;;;;;;9.70;4.47;;;9.00;77.60;;;;;;4053559;29;20132;-85
2024/01/05 13:39:11;;;;;;;11.07;4.25;;;9.00;77.70;;;;;;4055694;29;20059;-80
2024/01/05 13:41:15;;;;;;;10.93;4.97;;;9.00;77.90;;;;;;4053087;29;20061;-79
2024/01/05 13:43:17;;;;;;;10.15;4.28;;;9.00;78.10;;;;;;4052736;29;20105;-79
2024/01/05 13:45:19;;;;;;;9.95;4.95;;;9.00;77.40;;;;;;4052625;29;20450;-80
2024/01/05 13:47:21;;;;;;;10.90;4.90;;;9.10;77.50;;;;;;4052779;29;20049;-78
2024/01/05 13:49:22;;;;;;;10.15;3.95;;;9.00;77.70;;;;;;4052473;29;20048;-79
2024/01/05 13:51:24;;;;;;;9.70;3.30;;;9.10;77.60;;;;;;4053240;29;20056;-79
2024/01/05 13:53:26;;;;;;;10.48;3.70;;;9.00;77.20;;;;;;4055602;29;20142;-79
2024/01/05 13:55:28;;;;;;;10.75;3.40;;;9.00;77.60;;;;;;4055489;29;20048;-80
2024/01/05 13:57:30;;;;;;;7.65;3.10;;;8.90;77.20;;;;;;4055693;29;20040;-80
2024/01/05 13:59:33;;;;;;;9.05;2.85;;;8.90;77.40;;;;;;4055625;29;20467;-79
2024/01/05 14:01:35;;;;;;;6.47;3.00;;;9.00;77.10;;;;;;4039996;29;20121;-80
2024/01/05 14:03:37;;;;;;;9.70;2.65;;;9.00;76.70;;;;;;4040340;29;20399;-82
2024/01/05 14:05:39;;;;;;;7.93;3.15;;;8.90;76.50;;;;;;4053750;29;20112;-80
2024/01/05 14:07:41;;;;;;;5.43;2.35;;;8.90;76.70;;;;;;4053359;29;20049;-78
2024/01/05 14:09:43;;;;;;;10.60;2.65;;;9.00;76.80;;;;;;4053244;29;20048;-79
2024/01/05 14:11:44;;;;;;;8.15;2.28;;;8.90;76.50;;;;;;4053736;29;20465;-79
2024/01/05 14:13:47;;;;;;;9.32;2.95;;;8.90;76.30;;;;;;4053340;29;20057;-79
2024/01/05 14:15:49;;;;;;;8.32;2.60;;;8.90;76.40;;;;;;4053119;29;20177;-79
2024/01/05 14:17:51;;;;;;;5.00;2.10;;;8.90;76.60;;;;;;4053392;29;20053;-79
2024/01/05 14:19:53;;;;;;;7.05;2.60;;;8.90;76.70;;;;;;4052852;29;20117;-79
2024/01/05 14:21:53;;;;;;;7.07;2.60;;;8.90;76.70;;;;;;4053033;29;20455;-78
2024/01/05 14:23:56;;;;;;;7.22;2.80;;;9.00;76.60;;;;;;4052075;29;20052;-78
2024/01/05 14:25:58;;;;;;;7.85;2.60;;;8.90;76.50;;;;;;4053118;29;20049;-80
2024/01/05 14:27:59;;;;;;;6.30;2.65;;;8.90;76.90;;;;;;4053123;29;20053;-79
2024/01/05 14:30:04;;;;;;;9.95;3.80;;;8.90;77.00;;;;;;4053124;29;20502;-79
2024/01/05 14:32:07;;;;;;;8.50;2.85;;;9.00;77.10;;;;;;4054418;29;20123;-79
2024/01/05 14:34:09;;;;;;;8.10;3.10;;;9.00;77.90;;;;;;4051080;29;20067;-80
2024/01/05 14:36:11;;;;;;;7.10;2.90;;;9.00;76.90;;;;;;4054854;29;20055;-80
2024/01/05 14:38:12;;;;;;;6.05;2.60;;;9.00;77.00;;;;;;4053249;29;20061;-80
2024/01/05 14:40:14;;;;;;;7.90;3.35;;;9.00;77.00;;;;;;4052905;29;20052;-82
2024/01/05 14:42:16;;;;;;;8.55;3.58;;;9.00;77.10;;;;;;4052836;29;20053;-80
2024/01/05 14:44:18;;;;;;;9.48;2.85;;;9.00;77.80;;;;;;4051931;29;20056;-81
2024/01/05 14:46:21;;;;;;;7.55;2.88;;;9.00;77.30;;;;;;4052289;29;20486;-81
2024/01/05 14:48:23;;;;;;;7.95;2.85;;;9.00;77.30;;;;;;4052622;29;20411;-80
2024/01/05 14:50:25;;;;;;;7.82;3.00;;;9.00;77.30;;;;;;4053193;29;20135;-80
2024/01/05 14:52:27;;;;;;;10.23;2.92;;;9.00;77.40;;;;;;4050722;29;20053;-80
2024/01/05 14:54:30;;;;;;;9.25;3.50;;;9.00;77.40;;;;;;4052150;29;20041;-81
2024/01/05 14:56:32;;;;;;;9.55;3.08;;;9.00;77.20;;;;;;4052077;29;20052;-78
2024/01/05 14:58:33;;;;;;;9.05;2.85;;;9.00;77.00;;;;;;4052675;29;20045;-80
2024/01/05 15:00:34;;;;;;;9.13;2.92;;;9.00;77.00;;;;;;4054362;29;20048;-81
2024/01/05 15:02:38;;;;;;;6.38;2.75;;;9.00;76.90;;;;;;4053598;29;20445;-80
2024/01/05 15:04:40;;;;;;;8.48;2.75;;;9.00;77.10;;;;;;4053377;29;20053;-80
2024/01/05 15:06:41;;;;;;;7.78;2.90;;;9.00;77.20;;;;;;4054837;29;20048;-80
2024/01/05 15:08:44;;;;;;;7.97;3.00;;;9.00;77.30;;;;;;4054849;29;20052;-80
2024/01/05 15:10:46;;;;;;;10.40;3.00;;;9.00;77.20;;;;;;4038229;29;20061;-81
2024/01/05 15:12:48;;;;;;;8.63;2.83;;;9.00;77.20;;;;;;4054633;29;20056;-80
2024/01/05 15:14:50;;;;;;;8.98;3.13;;;9.00;77.10;;;;;;4054719;29;20487;-81
2024/01/05 15:16:51;;;;;;;7.10;2.80;;;9.00;77.00;;;;;;4054230;29;20056;-80
2024/01/05 15:18:55;;;;;;;8.18;2.97;;;9.00;76.90;;;;;;4054343;29;20056;-80
2024/01/05 15:20:57;;;;;;;8.23;2.97;;;9.00;77.00;;;;;;4054496;29;20513;-81
2024/01/05 15:22:58;;;;;;;7.50;3.20;;;9.00;76.90;;;;;;4054499;29;20109;-80
2024/01/05 15:25:00;;;;;;;9.43;2.97;;;9.00;77.10;;;;;;4054456;29;20175;-80
2024/01/05 15:27:02;;;;;;;6.60;2.85;;;9.00;77.20;;;;;;4054621;29;20049;-80
2024/01/05 15:29:04;;;;;;;7.28;3.00;;;9.00;77.20;;;;;;4054543;29;20052;-79
2024/01/05 15:31:06;;;;;;;8.50;3.10;;;9.00;77.20;;;;;;4054238;29;20104;-80
2024/01/05 15:33:08;;;;;;;8.52;2.95;;;9.00;77.20;;;;;;4053979;29;20131;-81
2024/01/05 15:35:10;;;;;;;9.20;3.30;;;9.00;77.20;;;;;;4054263;29;20100;-80
2024/01/05 15:37:12;;;;;;;7.40;3.00;;;9.00;77.10;;;;;;4054561;29;20474;-79
2024/01/05 15:39:14;;;;;;;7.55;3.00;;;9.10;77.00;;;;;;4056817;29;20049;-83
2024/01/05 15:41:15;;;;;;;8.38;3.03;;;9.10;77.10;;;;;;4054552;29;20048;-82
2024/01/05 15:43:17;;;;;;;11.50;3.30;;;9.10;77.00;;;;;;4055481;29;20470;-82
2024/01/05 15:45:18;;;;;;;6.85;2.90;;;9.10;77.10;;;;;;4054324;29;20056;-82
2024/01/05 15:47:20;;;;;;;8.77;2.85;;;9.10;77.20;;;;;;4054093;29;20048;-81
2024/01/05 15:49:24;;;;;;;8.48;3.10;;;9.10;76.90;;;;;;4053930;29;20132;-82
2024/01/05 15:51:29;;;;;;;10.07;3.97;;;9.10;76.90;;;;;;4053876;29;20048;-81
2024/01/05 15:53:31;;;;;;;10.18;4.15;;;9.10;77.30;;;;;;4054007;29;20044;-81
2024/01/05 15:55:34;;;;;;;7.63;3.28;;;9.10;77.30;;;;;;4054010;29;20131;-79
2024/01/05 15:57:36;;;;;;;7.00;2.97;;;9.10;77.20;;;;;;4053969;29;20083;-81
2024/01/05 15:59:37;;;;;;;11.82;3.30;;;9.10;77.30;;;;;;4053552;29;20126;-82
2024/01/05 16:01:38;;;;;;;7.95;3.20;;;9.00;78.10;;;;;;4053844;29;20060;-81
2024/01/05 16:03:40;;;;;;;11.38;4.88;;;9.00;78.90;;;;;;4053764;29;20093;-80
2024/01/05 16:05:44;;;;;;;9.32;3.88;;;9.00;78.70;;;;;;4053777;29;20203;-81
2024/01/05 16:07:47;;;;;;;9.35;3.95;;;9.00;78.70;;;;;;4053682;29;20062;-80
2024/01/05 16:09:49;;;;;;;13.07;4.80;;;9.00;79.00;;;;;;4053035;29;20045;-81
2024/01/05 16:11:51;;;;;;;9.57;5.10;;;9.00;79.10;;;;;;4053446;29;20040;-81
2024/01/05 16:13:53;;;;;;;11.90;5.13;;;9.00;79.20;;;;;;4053159;29;20105;-80
2024/01/05 16:16:12;;;;;;;11.93;5.10;;;9.00;79.50;;;;;;4053473;29;20048;-80
2024/01/05 16:18:14;;;;;;;12.73;5.78;;;8.90;80.00;;;;;;4038481;29;20109;-80
2024/01/05 16:20:16;;;;;;;15.25;8.07;;;8.90;80.20;;;;;;4044353;29;20100;-79
2024/01/05 16:22:17;;;;;;;18.27;9.80;;;8.90;80.60;;;;;;4053403;29;20155;-79
2024/01/05 16:24:21;;;;;;;18.83;9.85;;;8.90;81.00;;;;;;4053040;29;20045;-80
2024/01/05 16:26:24;;;;;;;15.50;8.80;;;8.90;81.20;;;;;;4053650;29;20049;-82
2024/01/05 16:28:26;;;;;;;13.73;7.57;;;8.90;81.40;;;;;;4053677;29;20052;-82
2024/01/05 16:30:27;;;;;;;12.02;4.32;;;8.90;81.60;;;;;;4053380;29;20052;-81
2024/01/05 16:32:29;;;;;;;11.45;5.18;;;8.90;81.30;;;;;;4053432;29;20051;-82
2024/01/05 16:34:31;;;;;;;11.35;4.20;;;8.90;81.10;;;;;;4053653;29;20055;-81
2024/01/05 16:36:32;;;;;;;9.75;4.25;;;8.90;81.30;;;;;;4053716;29;20456;-82
2024/01/05 16:38:34;;;;;;;12.43;4.85;;;8.80;82.00;;;;;;4053672;29;20040;-85
2024/01/05 16:40:37;;;;;;;10.18;5.35;;;8.80;82.20;;;;;;4052780;29;20051;-83
2024/01/05 16:42:39;;;;;;;10.88;5.13;;;8.80;82.30;;;;;;4053629;29;20118;-84
2024/01/05 16:44:41;;;;;;;9.48;5.15;;;8.70;82.50;;;;;;4053238;29;20057;-81
2024/01/05 16:46:43;;;;;;;9.20;5.18;;;8.70;82.80;;;;;;4053490;29;20429;-83